sensor_id;sensor_type;location;lat;lon;timestamp;P1;durP1;ratioP1;P2;durP2;ratioP2
22939;SDS011;11636;52.086;5.090;2022-08-24T00:00:39;4.22;;;3.38;;
22939;SDS011;11636;52.086;5.090;2022-08-24T00:03:26;4.75;;;3.42;;
22939;SDS011;11636;52.086;5.090;2022-08-24T00:06:21;4.32;;;3.58;;
22939;SDS011;11636;52.086;5.090;2022-08-24T00:09:17;5.00;;;3.80;;
22939;SDS011;11636;52.086;5.090;2022-08-24T00:12:12;4.85;;;3.90;;
22939;SDS011;11636;52.086;5.090;2022-08-24T00:15:07;4.65;;;3.58;;
22939;SDS011;11636;52.086;5.090;2022-08-24T00:17:57;4.05;;;3.30;;
22939;SDS011;11636;52.086;5.090;2022-08-24T00:20:51;4.72;;;3.15;;
22939;SDS011;11636;52.086;5.090;2022-08-24T00:23:45;4.32;;;3.25;;
22939;SDS011;11636;52.086;5.090;2022-08-24T00:26:40;4.60;;;3.67;;
22939;SDS011;11636;52.086;5.090;2022-08-24T00:29:34;4.88;;;3.90;;
22939;SDS011;11636;52.086;5.090;2022-08-24T00:32:22;4.50;;;3.85;;
22939;SDS011;11636;52.086;5.090;2022-08-24T00:35:16;5.47;;;4.22;;
22939;SDS011;11636;52.086;5.090;2022-08-24T00:38:05;4.75;;;3.90;;
22939;SDS011;11636;52.086;5.090;2022-08-24T00:41:00;4.85;;;3.92;;
22939;SDS011;11636;52.086;5.090;2022-08-24T00:44:05;5.45;;;3.92;;
22939;SDS011;11636;52.086;5.090;2022-08-24T00:47:01;3.97;;;3.53;;
22939;SDS011;11636;52.086;5.090;2022-08-24T00:50:03;5.35;;;3.90;;
22939;SDS011;11636;52.086;5.090;2022-08-24T00:52:58;4.93;;;4.28;;
22939;SDS011;11636;52.086;5.090;2022-08-24T00:55:56;4.05;;;3.42;;
22939;SDS011;11636;52.086;5.090;2022-08-24T00:58:47;5.18;;;3.95;;
22939;SDS011;11636;52.086;5.090;2022-08-24T01:01:45;5.85;;;4.47;;
22939;SDS011;11636;52.086;5.090;2022-08-24T01:04:49;5.13;;;4.18;;
22939;SDS011;11636;52.086;5.090;2022-08-24T01:07:40;5.38;;;4.38;;
22939;SDS011;11636;52.086;5.090;2022-08-24T01:10:39;4.63;;;3.83;;
22939;SDS011;11636;52.086;5.090;2022-08-24T01:13:38;5.22;;;4.10;;
22939;SDS011;11636;52.086;5.090;2022-08-24T01:16:35;4.70;;;3.70;;
22939;SDS011;11636;52.086;5.090;2022-08-24T01:19:48;4.85;;;3.95;;
22939;SDS011;11636;52.086;5.090;2022-08-24T01:25:52;5.63;;;4.32;;
22939;SDS011;11636;52.086;5.090;2022-08-24T01:28:49;5.53;;;4.03;;
22939;SDS011;11636;52.086;5.090;2022-08-24T01:31:42;4.30;;;3.60;;
22939;SDS011;11636;52.086;5.090;2022-08-24T01:34:37;4.95;;;4.07;;
22939;SDS011;11636;52.086;5.090;2022-08-24T01:37:24;4.90;;;4.10;;
22939;SDS011;11636;52.086;5.090;2022-08-24T01:40:18;4.30;;;3.58;;
22939;SDS011;11636;52.086;5.090;2022-08-24T01:43:06;5.10;;;4.10;;
22939;SDS011;11636;52.086;5.090;2022-08-24T01:46:01;4.60;;;3.90;;
22939;SDS011;11636;52.086;5.090;2022-08-24T01:48:48;4.95;;;3.55;;
22939;SDS011;11636;52.086;5.090;2022-08-24T01:51:42;4.25;;;3.63;;
22939;SDS011;11636;52.086;5.090;2022-08-24T01:54:32;5.20;;;3.85;;
22939;SDS011;11636;52.086;5.090;2022-08-24T01:57:29;4.40;;;3.55;;
22939;SDS011;11636;52.086;5.090;2022-08-24T02:00:23;4.35;;;3.60;;
22939;SDS011;11636;52.086;5.090;2022-08-24T02:03:17;4.00;;;3.28;;
22939;SDS011;11636;52.086;5.090;2022-08-24T02:06:04;5.18;;;4.10;;
22939;SDS011;11636;52.086;5.090;2022-08-24T02:08:59;5.13;;;3.55;;
22939;SDS011;11636;52.086;5.090;2022-08-24T02:11:47;5.18;;;4.00;;
22939;SDS011;11636;52.086;5.090;2022-08-24T02:14:41;4.43;;;3.90;;
22939;SDS011;11636;52.086;5.090;2022-08-24T02:17:28;4.72;;;3.72;;
22939;SDS011;11636;52.086;5.090;2022-08-24T02:20:22;4.85;;;3.58;;
22939;SDS011;11636;52.086;5.090;2022-08-24T02:23:09;5.05;;;3.67;;
22939;SDS011;11636;52.086;5.090;2022-08-24T02:26:06;5.60;;;4.00;;
22939;SDS011;11636;52.086;5.090;2022-08-24T02:31:49;5.00;;;4.13;;
22939;SDS011;11636;52.086;5.090;2022-08-24T02:34:37;6.03;;;4.70;;
22939;SDS011;11636;52.086;5.090;2022-08-24T02:37:31;5.47;;;4.30;;
22939;SDS011;11636;52.086;5.090;2022-08-24T02:40:18;4.80;;;4.25;;
22939;SDS011;11636;52.086;5.090;2022-08-24T02:43:13;4.97;;;4.47;;
22939;SDS011;11636;52.086;5.090;2022-08-24T02:46:00;5.57;;;3.88;;
22939;SDS011;11636;52.086;5.090;2022-08-24T02:48:59;5.22;;;3.90;;
22939;SDS011;11636;52.086;5.090;2022-08-24T02:51:57;5.97;;;4.97;;
22939;SDS011;11636;52.086;5.090;2022-08-24T02:54:51;5.22;;;4.35;;
22939;SDS011;11636;52.086;5.090;2022-08-24T02:57:45;5.18;;;4.68;;
22939;SDS011;11636;52.086;5.090;2022-08-24T03:00:33;4.72;;;4.22;;
22939;SDS011;11636;52.086;5.090;2022-08-24T03:03:31;5.32;;;4.32;;
22939;SDS011;11636;52.086;5.090;2022-08-24T03:06:25;5.18;;;4.63;;
22939;SDS011;11636;52.086;5.090;2022-08-24T03:09:19;6.72;;;4.75;;
22939;SDS011;11636;52.086;5.090;2022-08-24T03:12:14;8.60;;;4.82;;
22939;SDS011;11636;52.086;5.090;2022-08-24T03:15:08;6.13;;;5.10;;
22939;SDS011;11636;52.086;5.090;2022-08-24T03:18:03;6.07;;;5.20;;
22939;SDS011;11636;52.086;5.090;2022-08-24T03:21:00;6.35;;;4.47;;
22939;SDS011;11636;52.086;5.090;2022-08-24T03:23:55;5.13;;;4.55;;
22939;SDS011;11636;52.086;5.090;2022-08-24T03:26:49;5.35;;;4.40;;
22939;SDS011;11636;52.086;5.090;2022-08-24T03:29:36;5.30;;;4.43;;
22939;SDS011;11636;52.086;5.090;2022-08-24T03:32:30;7.60;;;5.35;;
22939;SDS011;11636;52.086;5.090;2022-08-24T03:35:17;6.63;;;4.88;;
22939;SDS011;11636;52.086;5.090;2022-08-24T03:38:14;4.90;;;4.40;;
22939;SDS011;11636;52.086;5.090;2022-08-24T03:41:01;5.38;;;4.55;;
22939;SDS011;11636;52.086;5.090;2022-08-24T03:43:55;6.07;;;4.93;;
22939;SDS011;11636;52.086;5.090;2022-08-24T03:46:42;6.32;;;5.70;;
22939;SDS011;11636;52.086;5.090;2022-08-24T03:49:38;6.53;;;5.75;;
22939;SDS011;11636;52.086;5.090;2022-08-24T03:52:32;6.50;;;5.55;;
22939;SDS011;11636;52.086;5.090;2022-08-24T03:55:27;7.30;;;5.43;;
22939;SDS011;11636;52.086;5.090;2022-08-24T03:58:14;6.05;;;5.15;;
22939;SDS011;11636;52.086;5.090;2022-08-24T04:01:08;6.93;;;5.35;;
22939;SDS011;11636;52.086;5.090;2022-08-24T04:04:03;5.57;;;4.88;;
22939;SDS011;11636;52.086;5.090;2022-08-24T04:06:51;5.82;;;4.80;;
22939;SDS011;11636;52.086;5.090;2022-08-24T04:09:45;5.93;;;4.85;;
22939;SDS011;11636;52.086;5.090;2022-08-24T04:12:39;6.93;;;4.90;;
22939;SDS011;11636;52.086;5.090;2022-08-24T04:15:40;5.97;;;4.90;;
22939;SDS011;11636;52.086;5.090;2022-08-24T04:18:28;6.30;;;4.88;;
22939;SDS011;11636;52.086;5.090;2022-08-24T04:21:23;5.13;;;4.03;;
22939;SDS011;11636;52.086;5.090;2022-08-24T04:24:22;5.38;;;4.38;;
22939;SDS011;11636;52.086;5.090;2022-08-24T04:27:16;5.63;;;4.55;;
22939;SDS011;11636;52.086;5.090;2022-08-24T04:30:10;5.80;;;4.90;;
22939;SDS011;11636;52.086;5.090;2022-08-24T04:33:06;6.47;;;4.63;;
22939;SDS011;11636;52.086;5.090;2022-08-24T04:35:54;5.90;;;4.70;;
22939;SDS011;11636;52.086;5.090;2022-08-24T04:38:48;6.05;;;4.75;;
22939;SDS011;11636;52.086;5.090;2022-08-24T04:41:42;6.28;;;5.32;;
22939;SDS011;11636;52.086;5.090;2022-08-24T04:44:36;6.68;;;5.32;;
22939;SDS011;11636;52.086;5.090;2022-08-24T04:47:23;6.40;;;4.65;;
22939;SDS011;11636;52.086;5.090;2022-08-24T04:50:17;5.60;;;5.00;;
22939;SDS011;11636;52.086;5.090;2022-08-24T04:53:05;5.20;;;4.40;;
22939;SDS011;11636;52.086;5.090;2022-08-24T04:56:00;5.65;;;4.40;;
22939;SDS011;11636;52.086;5.090;2022-08-24T04:58:48;5.70;;;4.95;;
22939;SDS011;11636;52.086;5.090;2022-08-24T05:01:43;5.15;;;4.43;;
22939;SDS011;11636;52.086;5.090;2022-08-24T05:04:37;6.38;;;4.82;;
22939;SDS011;11636;52.086;5.090;2022-08-24T05:07:24;6.00;;;4.85;;
22939;SDS011;11636;52.086;5.090;2022-08-24T05:10:18;5.75;;;4.80;;
22939;SDS011;11636;52.086;5.090;2022-08-24T05:13:06;6.60;;;5.10;;
22939;SDS011;11636;52.086;5.090;2022-08-24T05:16:00;7.18;;;5.60;;
22939;SDS011;11636;52.086;5.090;2022-08-24T05:18:56;6.38;;;5.22;;
22939;SDS011;11636;52.086;5.090;2022-08-24T05:21:50;6.70;;;4.95;;
22939;SDS011;11636;52.086;5.090;2022-08-24T05:24:37;6.18;;;5.13;;
22939;SDS011;11636;52.086;5.090;2022-08-24T05:27:32;6.72;;;5.30;;
22939;SDS011;11636;52.086;5.090;2022-08-24T05:30:19;5.70;;;4.95;;
22939;SDS011;11636;52.086;5.090;2022-08-24T05:33:13;6.05;;;4.40;;
22939;SDS011;11636;52.086;5.090;2022-08-24T05:36:00;6.18;;;5.07;;
22939;SDS011;11636;52.086;5.090;2022-08-24T05:39:10;6.80;;;5.35;;
22939;SDS011;11636;52.086;5.090;2022-08-24T05:42:05;6.32;;;5.25;;
22939;SDS011;11636;52.086;5.090;2022-08-24T05:44:59;5.40;;;4.80;;
22939;SDS011;11636;52.086;5.090;2022-08-24T05:47:53;6.20;;;5.47;;
22939;SDS011;11636;52.086;5.090;2022-08-24T05:50:51;7.80;;;6.00;;
22939;SDS011;11636;52.086;5.090;2022-08-24T05:53:42;6.82;;;5.72;;
22939;SDS011;11636;52.086;5.090;2022-08-24T05:56:36;8.27;;;6.40;;
22939;SDS011;11636;52.086;5.090;2022-08-24T05:59:23;6.90;;;5.97;;
22939;SDS011;11636;52.086;5.090;2022-08-24T06:02:17;6.93;;;5.95;;
22939;SDS011;11636;52.086;5.090;2022-08-24T06:05:12;7.20;;;5.80;;
22939;SDS011;11636;52.086;5.090;2022-08-24T06:08:06;6.63;;;5.35;;
22939;SDS011;11636;52.086;5.090;2022-08-24T06:11:00;6.25;;;5.32;;
22939;SDS011;11636;52.086;5.090;2022-08-24T06:13:48;6.85;;;5.78;;
22939;SDS011;11636;52.086;5.090;2022-08-24T06:16:45;5.32;;;4.82;;
22939;SDS011;11636;52.086;5.090;2022-08-24T06:19:39;5.55;;;4.70;;
22939;SDS011;11636;52.086;5.090;2022-08-24T06:22:29;4.68;;;4.13;;
22939;SDS011;11636;52.086;5.090;2022-08-24T06:25:22;5.05;;;4.50;;
22939;SDS011;11636;52.086;5.090;2022-08-24T06:28:28;5.35;;;4.15;;
22939;SDS011;11636;52.086;5.090;2022-08-24T06:31:23;4.00;;;2.90;;
22939;SDS011;11636;52.086;5.090;2022-08-24T06:34:11;3.25;;;2.75;;
22939;SDS011;11636;52.086;5.090;2022-08-24T06:37:06;4.20;;;3.40;;
22939;SDS011;11636;52.086;5.090;2022-08-24T06:40:00;3.67;;;2.78;;
22939;SDS011;11636;52.086;5.090;2022-08-24T06:42:54;3.70;;;2.92;;
22939;SDS011;11636;52.086;5.090;2022-08-24T06:45:55;3.80;;;3.10;;
22939;SDS011;11636;52.086;5.090;2022-08-24T06:48:50;3.58;;;3.10;;
22939;SDS011;11636;52.086;5.090;2022-08-24T06:51:38;3.60;;;2.67;;
22939;SDS011;11636;52.086;5.090;2022-08-24T06:54:36;2.90;;;2.22;;
22939;SDS011;11636;52.086;5.090;2022-08-24T06:57:30;3.08;;;2.28;;
22939;SDS011;11636;52.086;5.090;2022-08-24T07:00:24;2.60;;;2.00;;
22939;SDS011;11636;52.086;5.090;2022-08-24T07:03:11;2.47;;;1.80;;
22939;SDS011;11636;52.086;5.090;2022-08-24T07:06:06;2.78;;;1.98;;
22939;SDS011;11636;52.086;5.090;2022-08-24T07:08:54;2.47;;;1.90;;
22939;SDS011;11636;52.086;5.090;2022-08-24T07:11:48;3.03;;;2.28;;
22939;SDS011;11636;52.086;5.090;2022-08-24T07:14:42;2.50;;;1.90;;
22939;SDS011;11636;52.086;5.090;2022-08-24T07:17:36;3.08;;;2.38;;
22939;SDS011;11636;52.086;5.090;2022-08-24T07:20:23;5.05;;;4.35;;
22939;SDS011;11636;52.086;5.090;2022-08-24T07:23:18;4.43;;;3.47;;
22939;SDS011;11636;52.086;5.090;2022-08-24T07:26:07;3.53;;;2.60;;
22939;SDS011;11636;52.086;5.090;2022-08-24T07:29:08;3.30;;;2.70;;
22939;SDS011;11636;52.086;5.090;2022-08-24T07:32:26;2.88;;;2.13;;
22939;SDS011;11636;52.086;5.090;2022-08-24T07:35:14;3.10;;;2.45;;
22939;SDS011;11636;52.086;5.090;2022-08-24T07:38:10;3.40;;;2.33;;
22939;SDS011;11636;52.086;5.090;2022-08-24T07:41:04;3.63;;;2.30;;
22939;SDS011;11636;52.086;5.090;2022-08-24T07:44:12;3.72;;;2.75;;
22939;SDS011;11636;52.086;5.090;2022-08-24T07:47:07;3.15;;;2.22;;
22939;SDS011;11636;52.086;5.090;2022-08-24T07:50:21;3.47;;;2.95;;
22939;SDS011;11636;52.086;5.090;2022-08-24T07:53:08;5.35;;;4.78;;
22939;SDS011;11636;52.086;5.090;2022-08-24T07:56:09;5.32;;;4.10;;
22939;SDS011;11636;52.086;5.090;2022-08-24T07:58:57;4.78;;;3.67;;
22939;SDS011;11636;52.086;5.090;2022-08-24T08:01:57;3.40;;;2.30;;
22939;SDS011;11636;52.086;5.090;2022-08-24T08:04:53;4.53;;;3.97;;
22939;SDS011;11636;52.086;5.090;2022-08-24T08:07:49;4.65;;;3.45;;
22939;SDS011;11636;52.086;5.090;2022-08-24T08:10:44;6.05;;;4.82;;
22939;SDS011;11636;52.086;5.090;2022-08-24T08:13:32;6.13;;;4.43;;
22939;SDS011;11636;52.086;5.090;2022-08-24T08:16:27;6.63;;;5.55;;
22939;SDS011;11636;52.086;5.090;2022-08-24T08:19:15;10.85;;;9.70;;
22939;SDS011;11636;52.086;5.090;2022-08-24T08:22:09;5.88;;;5.07;;
22939;SDS011;11636;52.086;5.090;2022-08-24T08:25:15;4.78;;;3.20;;
22939;SDS011;11636;52.086;5.090;2022-08-24T08:28:10;3.90;;;3.20;;
22939;SDS011;11636;52.086;5.090;2022-08-24T08:31:11;10.57;;;8.43;;
22939;SDS011;11636;52.086;5.090;2022-08-24T08:34:06;5.75;;;4.13;;
22939;SDS011;11636;52.086;5.090;2022-08-24T08:36:54;5.03;;;3.67;;
22939;SDS011;11636;52.086;5.090;2022-08-24T08:39:47;6.18;;;4.05;;
22939;SDS011;11636;52.086;5.090;2022-08-24T09:02:01;7.88;;;6.03;;
22939;SDS011;11636;52.086;5.090;2022-08-24T09:15:02;5.53;;;3.25;;
22939;SDS011;11636;52.086;5.090;2022-08-24T09:18:16;8.43;;;4.90;;
22939;SDS011;11636;52.086;5.090;2022-08-24T09:21:37;3.53;;;2.85;;
22939;SDS011;11636;52.086;5.090;2022-08-24T09:27:55;4.60;;;3.47;;
22939;SDS011;11636;52.086;5.090;2022-08-24T09:33:44;3.45;;;2.15;;
22939;SDS011;11636;52.086;5.090;2022-08-24T09:39:59;4.15;;;2.40;;
22939;SDS011;11636;52.086;5.090;2022-08-24T10:11:47;3.60;;;1.95;;
22939;SDS011;11636;52.086;5.090;2022-08-24T10:15:08;2.85;;;1.60;;
22939;SDS011;11636;52.086;5.090;2022-08-24T10:18:20;2.50;;;1.73;;
22939;SDS011;11636;52.086;5.090;2022-08-24T10:21:35;2.40;;;1.50;;
22939;SDS011;11636;52.086;5.090;2022-08-24T10:34:22;3.97;;;2.03;;
22939;SDS011;11636;52.086;5.090;2022-08-24T10:40:39;3.80;;;1.50;;
22939;SDS011;11636;52.086;5.090;2022-08-24T10:44:13;2.85;;;1.48;;
22939;SDS011;11636;52.086;5.090;2022-08-24T10:47:25;5.43;;;2.10;;
22939;SDS011;11636;52.086;5.090;2022-08-24T10:50:27;4.47;;;1.77;;
22939;SDS011;11636;52.086;5.090;2022-08-24T10:53:36;4.50;;;2.10;;
22939;SDS011;11636;52.086;5.090;2022-08-24T10:56:38;5.47;;;2.60;;
22939;SDS011;11636;52.086;5.090;2022-08-24T11:03:08;3.38;;;1.70;;
22939;SDS011;11636;52.086;5.090;2022-08-24T11:06:01;3.22;;;1.63;;
22939;SDS011;11636;52.086;5.090;2022-08-24T11:09:09;5.35;;;2.97;;
22939;SDS011;11636;52.086;5.090;2022-08-24T11:12:15;4.82;;;2.30;;
22939;SDS011;11636;52.086;5.090;2022-08-24T11:18:09;5.20;;;2.88;;
22939;SDS011;11636;52.086;5.090;2022-08-24T11:20:57;4.15;;;2.10;;
22939;SDS011;11636;52.086;5.090;2022-08-24T11:23:55;6.38;;;3.05;;
22939;SDS011;11636;52.086;5.090;2022-08-24T11:26:58;3.00;;;1.63;;
22939;SDS011;11636;52.086;5.090;2022-08-24T11:29:58;4.03;;;1.80;;
22939;SDS011;11636;52.086;5.090;2022-08-24T11:35:47;4.88;;;1.80;;
22939;SDS011;11636;52.086;5.090;2022-08-24T11:38:41;2.70;;;1.70;;
22939;SDS011;11636;52.086;5.090;2022-08-24T11:41:32;3.08;;;1.63;;
22939;SDS011;11636;52.086;5.090;2022-08-24T11:44:48;4.25;;;1.73;;
22939;SDS011;11636;52.086;5.090;2022-08-24T11:48:12;3.15;;;1.52;;
22939;SDS011;11636;52.086;5.090;2022-08-24T11:51:27;3.22;;;1.67;;
22939;SDS011;11636;52.086;5.090;2022-08-24T11:54:21;2.80;;;1.10;;
22939;SDS011;11636;52.086;5.090;2022-08-24T12:04:08;1.67;;;0.90;;
22939;SDS011;11636;52.086;5.090;2022-08-24T12:07:41;1.42;;;0.70;;
22939;SDS011;11636;52.086;5.090;2022-08-24T12:14:20;1.67;;;1.00;;
22939;SDS011;11636;52.086;5.090;2022-08-24T12:20:25;2.15;;;0.95;;
22939;SDS011;11636;52.086;5.090;2022-08-24T12:26:26;1.25;;;0.65;;
22939;SDS011;11636;52.086;5.090;2022-08-24T12:29:49;1.23;;;0.50;;
22939;SDS011;11636;52.086;5.090;2022-08-24T12:33:08;1.90;;;0.80;;
22939;SDS011;11636;52.086;5.090;2022-08-24T12:36:16;1.47;;;0.80;;
22939;SDS011;11636;52.086;5.090;2022-08-24T12:39:09;1.20;;;0.65;;
22939;SDS011;11636;52.086;5.090;2022-08-24T12:42:15;1.90;;;1.00;;
22939;SDS011;11636;52.086;5.090;2022-08-24T12:45:12;1.70;;;0.80;;
22939;SDS011;11636;52.086;5.090;2022-08-24T12:51:23;1.60;;;0.80;;
22939;SDS011;11636;52.086;5.090;2022-08-24T12:58:21;1.95;;;1.20;;
22939;SDS011;11636;52.086;5.090;2022-08-24T13:01:42;1.77;;;1.00;;
22939;SDS011;11636;52.086;5.090;2022-08-24T13:07:31;3.05;;;1.40;;
22939;SDS011;11636;52.086;5.090;2022-08-24T13:10:34;2.67;;;1.42;;
22939;SDS011;11636;52.086;5.090;2022-08-24T13:13:42;3.28;;;1.45;;
22939;SDS011;11636;52.086;5.090;2022-08-24T13:16:44;2.97;;;1.35;;
22939;SDS011;11636;52.086;5.090;2022-08-24T13:19:39;3.00;;;1.40;;
22939;SDS011;11636;52.086;5.090;2022-08-24T13:22:36;2.03;;;1.00;;
22939;SDS011;11636;52.086;5.090;2022-08-24T13:25:44;2.67;;;1.60;;
22939;SDS011;11636;52.086;5.090;2022-08-24T13:28:51;2.17;;;1.08;;
22939;SDS011;11636;52.086;5.090;2022-08-24T13:31:47;2.92;;;1.30;;
22939;SDS011;11636;52.086;5.090;2022-08-24T13:34:47;4.15;;;1.38;;
22939;SDS011;11636;52.086;5.090;2022-08-24T13:37:37;3.40;;;1.40;;
22939;SDS011;11636;52.086;5.090;2022-08-24T13:40:31;5.10;;;1.58;;
22939;SDS011;11636;52.086;5.090;2022-08-24T13:43:34;2.65;;;1.42;;
22939;SDS011;11636;52.086;5.090;2022-08-24T13:47:04;4.30;;;1.30;;
22939;SDS011;11636;52.086;5.090;2022-08-24T13:50:26;2.55;;;1.20;;
22939;SDS011;11636;52.086;5.090;2022-08-24T13:57:01;3.20;;;1.02;;
22939;SDS011;11636;52.086;5.090;2022-08-24T14:12:38;1.70;;;0.82;;
22939;SDS011;11636;52.086;5.090;2022-08-24T14:15:50;1.70;;;0.88;;
22939;SDS011;11636;52.086;5.090;2022-08-24T14:19:58;1.95;;;0.93;;
22939;SDS011;11636;52.086;5.090;2022-08-24T14:22:48;1.45;;;0.80;;
22939;SDS011;11636;52.086;5.090;2022-08-24T14:25:47;1.95;;;0.90;;
22939;SDS011;11636;52.086;5.090;2022-08-24T14:28:39;2.75;;;1.05;;
22939;SDS011;11636;52.086;5.090;2022-08-24T14:31:35;1.83;;;0.90;;
22939;SDS011;11636;52.086;5.090;2022-08-24T14:40:51;3.30;;;1.10;;
22939;SDS011;11636;52.086;5.090;2022-08-24T14:51:08;2.85;;;0.80;;
22939;SDS011;11636;52.086;5.090;2022-08-24T15:00:13;1.70;;;0.82;;
22939;SDS011;11636;52.086;5.090;2022-08-24T15:03:25;6.50;;;1.45;;
22939;SDS011;11636;52.086;5.090;2022-08-24T15:09:32;1.77;;;0.90;;
22939;SDS011;11636;52.086;5.090;2022-08-24T15:19:08;2.00;;;1.00;;
22939;SDS011;11636;52.086;5.090;2022-08-24T15:22:08;1.38;;;0.80;;
22939;SDS011;11636;52.086;5.090;2022-08-24T15:25:17;4.55;;;1.10;;
22939;SDS011;11636;52.086;5.090;2022-08-24T15:28:25;2.47;;;0.90;;
22939;SDS011;11636;52.086;5.090;2022-08-24T15:31:18;2.42;;;1.10;;
22939;SDS011;11636;52.086;5.090;2022-08-24T15:34:14;1.55;;;0.88;;
22939;SDS011;11636;52.086;5.090;2022-08-24T15:37:08;2.13;;;0.90;;
22939;SDS011;11636;52.086;5.090;2022-08-24T15:40:04;2.85;;;1.17;;
22939;SDS011;11636;52.086;5.090;2022-08-24T15:43:15;1.90;;;0.77;;
22939;SDS011;11636;52.086;5.090;2022-08-24T15:46:09;4.85;;;1.08;;
22939;SDS011;11636;52.086;5.090;2022-08-24T15:49:00;3.28;;;1.15;;
22939;SDS011;11636;52.086;5.090;2022-08-24T15:52:00;2.28;;;1.25;;
22939;SDS011;11636;52.086;5.090;2022-08-24T16:01:29;2.23;;;1.30;;
22939;SDS011;11636;52.086;5.090;2022-08-24T16:07:34;2.58;;;1.20;;
22939;SDS011;11636;52.086;5.090;2022-08-24T16:10:57;2.17;;;1.30;;
22939;SDS011;11636;52.086;5.090;2022-08-24T16:14:31;2.40;;;1.20;;
22939;SDS011;11636;52.086;5.090;2022-08-24T16:17:32;2.20;;;1.00;;
22939;SDS011;11636;52.086;5.090;2022-08-24T16:20:31;1.60;;;0.90;;
22939;SDS011;11636;52.086;5.090;2022-08-24T16:23:24;4.18;;;1.65;;
22939;SDS011;11636;52.086;5.090;2022-08-24T16:26:55;3.55;;;1.50;;
22939;SDS011;11636;52.086;5.090;2022-08-24T16:32:30;3.42;;;1.20;;
22939;SDS011;11636;52.086;5.090;2022-08-24T16:35:35;2.08;;;1.00;;
22939;SDS011;11636;52.086;5.090;2022-08-24T16:38:29;2.22;;;1.27;;
22939;SDS011;11636;52.086;5.090;2022-08-24T16:41:28;2.30;;;1.20;;
22939;SDS011;11636;52.086;5.090;2022-08-24T16:44:23;2.38;;;1.25;;
22939;SDS011;11636;52.086;5.090;2022-08-24T16:47:15;1.80;;;1.00;;
22939;SDS011;11636;52.086;5.090;2022-08-24T16:50:10;3.45;;;1.10;;
22939;SDS011;11636;52.086;5.090;2022-08-24T16:52:58;1.90;;;1.10;;
22939;SDS011;11636;52.086;5.090;2022-08-24T16:55:52;4.07;;;1.23;;
22939;SDS011;11636;52.086;5.090;2022-08-24T16:58:39;2.35;;;1.15;;
22939;SDS011;11636;52.086;5.090;2022-08-24T17:01:33;4.28;;;1.77;;
22939;SDS011;11636;52.086;5.090;2022-08-24T17:04:20;5.20;;;1.98;;
22939;SDS011;11636;52.086;5.090;2022-08-24T17:07:15;2.30;;;1.42;;
22939;SDS011;11636;52.086;5.090;2022-08-24T17:10:07;3.55;;;2.13;;
22939;SDS011;11636;52.086;5.090;2022-08-24T17:13:02;3.60;;;1.90;;
22939;SDS011;11636;52.086;5.090;2022-08-24T17:15:49;4.10;;;1.75;;
22939;SDS011;11636;52.086;5.090;2022-08-24T17:18:43;2.85;;;1.50;;
22939;SDS011;11636;52.086;5.090;2022-08-24T17:21:38;3.75;;;1.70;;
22939;SDS011;11636;52.086;5.090;2022-08-24T17:24:25;3.45;;;1.70;;
22939;SDS011;11636;52.086;5.090;2022-08-24T17:27:20;2.90;;;1.50;;
22939;SDS011;11636;52.086;5.090;2022-08-24T17:30:13;3.30;;;1.90;;
22939;SDS011;11636;52.086;5.090;2022-08-24T17:33:11;6.13;;;2.80;;
22939;SDS011;11636;52.086;5.090;2022-08-24T17:35:58;4.47;;;2.03;;
22939;SDS011;11636;52.086;5.090;2022-08-24T17:39:01;3.65;;;2.03;;
22939;SDS011;11636;52.086;5.090;2022-08-24T17:41:53;2.95;;;1.85;;
22939;SDS011;11636;52.086;5.090;2022-08-24T17:44:48;2.35;;;1.60;;
22939;SDS011;11636;52.086;5.090;2022-08-24T17:47:35;2.63;;;1.75;;
22939;SDS011;11636;52.086;5.090;2022-08-24T17:50:29;3.65;;;2.20;;
22939;SDS011;11636;52.086;5.090;2022-08-24T17:53:16;3.22;;;2.10;;
22939;SDS011;11636;52.086;5.090;2022-08-24T17:56:10;3.90;;;2.22;;
22939;SDS011;11636;52.086;5.090;2022-08-24T17:59:06;3.22;;;2.10;;
22939;SDS011;11636;52.086;5.090;2022-08-24T18:02:16;3.80;;;2.13;;
22939;SDS011;11636;52.086;5.090;2022-08-24T18:05:04;3.13;;;2.20;;
22939;SDS011;11636;52.086;5.090;2022-08-24T18:08:06;3.20;;;2.10;;
22939;SDS011;11636;52.086;5.090;2022-08-24T18:10:54;3.53;;;2.00;;
22939;SDS011;11636;52.086;5.090;2022-08-24T18:13:47;3.33;;;2.20;;
22939;SDS011;11636;52.086;5.090;2022-08-24T18:16:34;3.00;;;1.90;;
22939;SDS011;11636;52.086;5.090;2022-08-24T18:19:37;2.53;;;1.63;;
22939;SDS011;11636;52.086;5.090;2022-08-24T18:22:26;4.05;;;2.20;;
22939;SDS011;11636;52.086;5.090;2022-08-24T18:25:21;2.47;;;1.67;;
22939;SDS011;11636;52.086;5.090;2022-08-24T18:28:08;2.40;;;1.58;;
22939;SDS011;11636;52.086;5.090;2022-08-24T18:31:03;2.78;;;1.75;;
22939;SDS011;11636;52.086;5.090;2022-08-24T18:34:00;2.88;;;1.60;;
22939;SDS011;11636;52.086;5.090;2022-08-24T18:36:47;2.80;;;1.70;;
22939;SDS011;11636;52.086;5.090;2022-08-24T18:39:49;4.70;;;2.65;;
22939;SDS011;11636;52.086;5.090;2022-08-24T18:42:37;3.40;;;2.28;;
22939;SDS011;11636;52.086;5.090;2022-08-24T18:45:31;4.18;;;2.75;;
22939;SDS011;11636;52.086;5.090;2022-08-24T18:48:20;5.55;;;4.05;;
22939;SDS011;11636;52.086;5.090;2022-08-24T18:51:15;4.63;;;3.35;;
22939;SDS011;11636;52.086;5.090;2022-08-24T18:54:21;5.03;;;3.33;;
22939;SDS011;11636;52.086;5.090;2022-08-24T18:57:17;4.45;;;3.33;;
22939;SDS011;11636;52.086;5.090;2022-08-24T19:00:11;3.83;;;2.88;;
22939;SDS011;11636;52.086;5.090;2022-08-24T19:03:00;4.47;;;2.80;;
22939;SDS011;11636;52.086;5.090;2022-08-24T19:05:56;3.70;;;2.75;;
22939;SDS011;11636;52.086;5.090;2022-08-24T19:08:43;3.80;;;2.80;;
22939;SDS011;11636;52.086;5.090;2022-08-24T19:11:37;3.50;;;2.60;;
22939;SDS011;11636;52.086;5.090;2022-08-24T19:14:24;4.15;;;2.28;;
22939;SDS011;11636;52.086;5.090;2022-08-24T19:17:18;3.97;;;2.05;;
22939;SDS011;11636;52.086;5.090;2022-08-24T19:20:12;3.15;;;1.90;;
22939;SDS011;11636;52.086;5.090;2022-08-24T19:23:08;3.10;;;1.73;;
22939;SDS011;11636;52.086;5.090;2022-08-24T19:26:04;2.72;;;1.58;;
22939;SDS011;11636;52.086;5.090;2022-08-24T19:28:58;3.00;;;1.75;;
22939;SDS011;11636;52.086;5.090;2022-08-24T19:31:46;3.90;;;1.60;;
22939;SDS011;11636;52.086;5.090;2022-08-24T19:34:39;3.05;;;1.60;;
22939;SDS011;11636;52.086;5.090;2022-08-24T19:37:27;2.22;;;1.50;;
22939;SDS011;11636;52.086;5.090;2022-08-24T19:40:21;2.78;;;2.03;;
22939;SDS011;11636;52.086;5.090;2022-08-24T19:43:15;3.45;;;2.53;;
22939;SDS011;11636;52.086;5.090;2022-08-24T19:46:04;3.47;;;2.00;;
22939;SDS011;11636;52.086;5.090;2022-08-24T19:48:59;3.22;;;2.20;;
22939;SDS011;11636;52.086;5.090;2022-08-24T19:51:47;2.67;;;1.77;;
22939;SDS011;11636;52.086;5.090;2022-08-24T19:54:42;2.65;;;1.70;;
22939;SDS011;11636;52.086;5.090;2022-08-24T19:57:41;3.10;;;2.20;;
22939;SDS011;11636;52.086;5.090;2022-08-24T20:00:41;2.45;;;1.65;;
22939;SDS011;11636;52.086;5.090;2022-08-24T20:03:37;2.72;;;1.88;;
22939;SDS011;11636;52.086;5.090;2022-08-24T20:06:24;2.55;;;1.70;;
22939;SDS011;11636;52.086;5.090;2022-08-24T20:09:20;3.40;;;2.13;;
22939;SDS011;11636;52.086;5.090;2022-08-24T20:12:09;3.08;;;2.00;;
22939;SDS011;11636;52.086;5.090;2022-08-24T20:15:04;2.83;;;1.92;;
22939;SDS011;11636;52.086;5.090;2022-08-24T20:17:53;3.30;;;2.03;;
22939;SDS011;11636;52.086;5.090;2022-08-24T20:20:48;3.30;;;2.13;;
22939;SDS011;11636;52.086;5.090;2022-08-24T20:23:36;2.60;;;1.73;;
22939;SDS011;11636;52.086;5.090;2022-08-24T20:26:33;2.80;;;1.83;;
22939;SDS011;11636;52.086;5.090;2022-08-24T20:29:25;3.00;;;2.08;;
22939;SDS011;11636;52.086;5.090;2022-08-24T20:32:19;2.83;;;2.03;;
22939;SDS011;11636;52.086;5.090;2022-08-24T20:35:07;2.53;;;1.65;;
22939;SDS011;11636;52.086;5.090;2022-08-24T20:38:01;2.67;;;1.80;;
22939;SDS011;11636;52.086;5.090;2022-08-24T20:40:49;2.78;;;1.88;;
22939;SDS011;11636;52.086;5.090;2022-08-24T20:43:43;3.42;;;2.22;;